Medon, Tennessee
Current Conditions -  °F | °C
As of 8:53 PM on Wednesday 26 Nov 2014 (Local Time) from KMKL Reporting Station
Overcast Overcast  
Wind Chill: 37°   Ceiling: 8500
Heat Index: 42°   Visibility: 10mi
Dew Point: 34°   Wind: 8mph
Humidity: 73%   Direction: 290°WNW
Pressure: 30.13"   Gusts: NA
Location:  35.46°N, 88.87°W
Report Text: KMKL 270253Z AUTO 29007KT 10SM OVC085 06/01 A3013 RMK AO2 SLP205 T00560011 51020
Loading
Personal Weather Stations






























Interactive Weather Map New forecast layout! Learn more

10-Day Weather Forecast

Advertisements
Track Severe Weather on mobile